Hatfield, Minnesota
Current Conditions -  °F | °C
As of 10:14 AM on Monday 22 Dec 2014 (Local Time) from KPQN Reporting Station
Drizzle Drizzle  
Wind Chill: 29°   Ceiling: 300
Heat Index: 37°   Visibility: 2.5mi
Dew Point: 37°   Wind: 14mph
Humidity: 100%   Direction: 170°S
Pressure: 29.45"   Gusts: NA
Location:  44.066°N, 96.3302°W
Report Text: KPQN 221614Z AUTO 17012KT 2 1/2SM DZ OVC003 03/03 A2945 RMK AO2
Loading
Personal Weather Stations






























Interactive Weather Map New forecast layout! Learn more

10-Day Weather Forecast

Advertisements
Track Severe Weather on mobile